Terminal Aerodrome Forecast
Issued by NWS Mt. Holly, NJ

Home | Current Version | Previous Version | Text Only | Print | Product List | Glossary On
Versions: 1 2 3 4 5 6 7 8 9 10 11 12 13 14 15 16 17 18 19 20 21
000
FTUS41 KPHI 301000 AAC
TAFABE
TAF AMD
KABE 301025Z 3010/0106 00000KT 1/4SM FG BKN003 OVC017
      TEMPO 3010/3013 2SM BR SCT003 BKN015
     FM301300 11005KT P6SM SCT050
      TEMPO 3018/3022 BKN050
     FM010000 06003KT P6SM BKN150
     FM010500 07007KT 6SM BR BKN020=

USA.gov is the U.S. government's official web portal to all federal, state and local government web resources and services.